Time;durP1;ratioP1;P1;durP2;ratioP2;P2;SDS_P1;SDS_P2;PMS_P1;PMS_P2;Temp;Humidity;BMP_temperature;BMP_pressure;BME280_temperature;BME280_humidity;BME280_pressure;Samples;Min_cycle;Max_cycle;Signal;HPM_P1;HPM_P2
2022/06/23 00:00:46;;;;;;;8.80;6.35;;;;;;;23.32;45.81;94627.13;5031473;28;20210;-64
2022/06/23 00:03:19;;;;;;;8.93;5.97;;;;;;;23.41;45.57;94640.97;5036998;28;20222;-64
2022/06/23 00:05:52;;;;;;;9.82;6.38;;;;;;;23.35;45.57;94634.69;5035098;28;20229;-66
2022/06/23 00:08:18;;;;;;;6.68;5.30;;;;;;;23.47;45.38;94645.34;5053653;28;20316;-65
2022/06/23 00:10:49;;;;;;;9.07;6.20;;;;;;;23.32;45.80;94641.34;5042501;28;20216;-65
2022/06/23 00:13:23;;;;;;;7.85;6.18;;;;;;;23.36;45.75;94628.25;5050624;28;20299;-66
2022/06/23 00:15:51;;;;;;;8.18;6.30;;;;;;;23.36;45.80;94636.31;5032129;28;20237;-67
2022/06/23 00:18:20;;;;;;;7.22;6.38;;;;;;;23.37;45.59;94640.63;5043285;28;20225;-65
2022/06/23 00:20:57;;;;;;;9.95;6.40;;;;;;;23.23;46.01;94639.28;5036032;28;20225;-64
2022/06/23 00:23:28;;;;;;;7.13;5.82;;;;;;;23.21;46.01;94647.59;5041666;28;20696;-64
2022/06/23 00:25:54;;;;;;;7.45;5.50;;;;;;;23.20;46.04;94645.97;5040869;28;20296;-61
2022/06/23 00:28:31;;;;;;;7.50;5.60;;;;;;;23.30;45.61;94643.44;5041997;28;20337;-64
2022/06/23 00:31:04;;;;;;;7.55;6.20;;;;;;;23.34;45.75;94638.44;5029525;28;20225;-67
2022/06/23 00:33:42;;;;;;;8.48;5.75;;;;;;;23.26;45.95;94634.28;5036349;28;20227;-66
2022/06/23 00:36:29;;;;;;;9.52;6.00;;;;;;;23.13;46.13;94626.50;5032028;28;20229;-68
2022/06/23 00:38:55;;;;;;;6.13;5.53;;;;;;;23.08;46.38;94605.75;5042050;28;20221;-64
2022/06/23 00:41:26;;;;;;;8.05;6.35;;;;;;;22.99;46.71;94599.16;5030862;28;20221;-67
2022/06/23 00:43:52;;;;;;;9.68;6.10;;;;;;;22.95;46.99;94578.41;5038019;28;20275;-65
2022/06/23 00:46:25;;;;;;;8.52;6.60;;;;;;;22.90;47.15;94566.50;5042348;28;20198;-67
2022/06/23 00:49:00;;;;;;;10.25;6.38;;;;;;;22.93;46.97;94586.66;5046004;28;20233;-68
2022/06/23 00:51:36;;;;;;;7.80;6.97;;;;;;;22.94;47.11;94599.03;5044248;28;20228;-66
2022/06/23 00:54:14;;;;;;;8.02;5.95;;;;;;;23.03;46.95;94607.53;5045877;28;20222;-65
2022/06/23 00:56:47;;;;;;;8.48;5.75;;;;;;;23.04;46.73;94603.78;5047079;28;20308;-66
2022/06/23 00:59:21;;;;;;;8.73;6.15;;;;;;;22.90;47.07;94608.59;5038988;28;20253;-68
2022/06/23 01:01:53;;;;;;;6.70;6.00;;;;;;;22.84;47.47;94617.59;5041950;28;20212;-67
2022/06/23 01:04:30;;;;;;;8.90;6.40;;;;;;;22.93;47.40;94618.03;5052222;28;20732;-67
2022/06/23 01:07:33;;;;;;;9.30;6.05;;;;;;;22.90;47.69;94613.97;5034449;28;20344;-67
2022/06/23 01:10:29;;;;;;;7.72;6.28;;;;;;;22.81;48.03;94604.69;5049162;28;20226;-65
2022/06/23 01:13:12;;;;;;;9.23;6.50;;;;;;;22.76;47.82;94613.41;5035389;28;20276;-65
2022/06/23 01:15:43;;;;;;;8.38;6.05;;;;;;;22.73;48.26;94608.53;5037146;28;20230;-63
2022/06/23 01:18:26;;;;;;;7.05;6.05;;;;;;;22.83;47.67;94610.63;5051698;28;20218;-66
2022/06/23 01:21:21;;;;;;;7.63;6.20;;;;;;;22.70;47.87;94603.66;5033674;28;20225;-62
2022/06/23 01:24:11;;;;;;;10.50;7.03;;;;;;;22.72;48.18;94603.41;5031749;28;20221;-67
2022/06/23 01:27:01;;;;;;;10.98;7.18;;;;;;;22.61;48.39;94591.66;5036830;28;20255;-67
2022/06/23 01:29:38;;;;;;;11.70;6.95;;;;;;;22.51;49.10;94592.28;5041181;28;20289;-64
2022/06/23 01:32:12;;;;;;;7.63;6.85;;;;;;;22.44;49.63;94589.72;5057796;28;20212;-64
2022/06/23 01:34:56;;;;;;;8.60;6.57;;;;;;;22.25;50.14;94588.25;5059005;28;20224;-65
2022/06/23 01:37:21;;;;;;;8.40;7.10;;;;;;;22.12;50.71;94588.47;5034579;28;20213;-63
2022/06/23 01:40:13;;;;;;;8.43;7.53;;;;;;;22.05;50.99;94585.88;5051475;28;20278;-65
2022/06/23 01:42:47;;;;;;;7.63;6.80;;;;;;;22.14;50.87;94583.69;5049427;28;20259;-67
2022/06/23 01:45:22;;;;;;;7.80;6.97;;;;;;;22.12;50.74;94578.56;5052355;28;20217;-65
2022/06/23 01:47:48;;;;;;;10.50;7.10;;;;;;;22.06;50.78;94574.16;5049371;28;20319;-68
2022/06/23 01:50:13;;;;;;;8.98;6.65;;;;;;;22.16;50.48;94576.22;5067062;28;20312;-65
2022/06/23 01:52:41;;;;;;;10.10;7.20;;;;;;;22.14;50.56;94572.97;5041707;28;20213;-67
2022/06/23 01:55:35;;;;;;;8.93;6.72;;;;;;;22.02;51.08;94556.91;5053092;28;20237;-68
2022/06/23 01:58:07;;;;;;;7.70;7.00;;;;;;;22.02;51.03;94556.91;5066305;28;20267;-66
2022/06/23 02:00:42;;;;;;;8.00;7.20;;;;;;;22.10;50.83;94555.75;5038931;28;20229;-65
2022/06/23 02:03:17;;;;;;;7.78;6.78;;;;;;;22.06;50.71;94558.09;5029902;28;20308;-65
2022/06/23 02:05:49;;;;;;;10.60;6.82;;;;;;;22.09;50.76;94559.47;5042890;28;20229;-66
2022/06/23 02:08:35;;;;;;;10.15;7.43;;;;;;;21.95;51.02;94554.38;5046292;28;20241;-66
2022/06/23 02:11:06;;;;;;;8.27;7.32;;;;;;;21.89;51.28;94544.59;5031453;28;20221;-65
2022/06/23 02:14:16;;;;;;;11.15;6.95;;;;;;;21.69;52.27;94560.19;5039907;28;20253;-66
2022/06/23 02:17:15;;;;;;;12.15;8.00;;;;;;;21.68;51.84;94556.69;5022964;28;20233;-68
2022/06/23 02:19:45;;;;;;;12.13;7.53;;;;;;;21.75;51.46;94551.22;5022735;28;20201;-66
2022/06/23 02:22:25;;;;;;;8.07;7.22;;;;;;;21.80;51.37;94549.47;5019034;28;20205;-68
2022/06/23 02:25:24;;;;;;;9.30;7.15;;;;;;;21.69;52.12;94544.94;5017222;28;20233;-68
2022/06/23 02:27:56;;;;;;;8.60;7.32;;;;;;;21.84;52.15;94547.16;5024574;28;20324;-67
2022/06/23 02:30:30;;;;;;;10.65;7.28;;;;;;;21.68;52.57;94540.63;5004916;28;20230;-64
2022/06/23 02:33:07;;;;;;;9.25;7.25;;;;;;;21.69;52.71;94552.16;5010889;28;20225;-66
2022/06/23 02:35:46;;;;;;;9.75;7.93;;;;;;;21.65;52.75;94548.28;5026165;28;20322;-66
2022/06/23 02:38:23;;;;;;;9.80;7.07;;;;;;;21.52;53.25;94550.16;5026998;28;20287;-65
2022/06/23 02:41:15;;;;;;;8.90;7.30;;;;;;;21.43;53.66;94562.22;5017639;28;20214;-64
2022/06/23 02:43:49;;;;;;;10.73;8.38;;;;;;;21.27;54.26;94558.31;5027334;28;20209;-63
2022/06/23 02:46:32;;;;;;;13.68;8.60;;;;;;;21.33;54.59;94557.44;5024443;28;20243;-67
2022/06/23 02:49:36;;;;;;;9.02;7.38;;;;;;;21.39;54.82;94566.44;5024093;28;20229;-66
2022/06/23 02:52:22;;;;;;;8.75;7.85;;;;;;;21.35;54.69;94567.88;5006642;28;20229;-67
2022/06/23 02:55:00;;;;;;;10.90;8.35;;;;;;;21.36;54.67;94577.56;5033476;28;20226;-66
2022/06/23 02:57:25;;;;;;;8.80;7.78;;;;;;;21.41;54.47;94564.34;5036311;28;20244;-67
2022/06/23 03:00:12;;;;;;;10.55;8.10;;;;;;;21.33;54.87;94564.63;5059441;28;20237;-66
2022/06/23 03:03:45;;;;;;;10.27;8.27;;;;;;;20.71;56.67;94575.56;5074445;28;20751;-67
2022/06/23 03:06:28;;;;;;;10.68;8.70;;;;;;;20.62;57.67;94580.41;4965412;28;20234;-65
2022/06/23 03:08:53;;;;;;;11.00;9.10;;;;;;;20.76;56.97;94577.56;4968652;28;20442;-62
2022/06/23 03:11:51;;;;;;;10.15;8.32;;;;;;;20.97;56.23;94573.59;4985065;28;20322;-67
2022/06/23 03:14:32;;;;;;;11.25;8.18;;;;;;;21.08;55.91;94581.66;4985860;28;20239;-65
2022/06/23 03:17:24;;;;;;;10.27;9.27;;;;;;;21.04;56.29;94577.81;4990578;28;20227;-63
2022/06/23 03:20:26;;;;;;;12.80;9.50;;;;;;;21.23;55.84;94583.09;4970038;28;20233;-63
2022/06/23 03:23:03;;;;;;;11.98;9.27;;;;;;;21.44;54.95;94574.56;4965765;28;20222;-62
2022/06/23 03:25:33;;;;;;;14.50;9.02;;;;;;;21.45;55.10;94576.19;4966408;28;20265;-65
2022/06/23 03:28:05;;;;;;;10.43;9.07;;;;;;;21.35;55.38;94570.56;4966850;28;20239;-61
2022/06/23 03:30:46;;;;;;;10.43;9.23;;;;;;;21.24;55.59;94561.47;4928912;28;20227;-65
2022/06/23 03:33:18;;;;;;;11.23;9.55;;;;;;;21.07;55.97;94561.31;4967135;28;20242;-62
2022/06/23 03:35:55;;;;;;;11.55;9.02;;;;;;;21.18;55.38;94558.91;4971416;28;20247;-61
2022/06/23 03:41:36;;;;;;;13.63;9.55;;;;;;;21.00;56.02;94549.91;4983520;28;20387;-65
2022/06/23 03:44:20;;;;;;;11.70;9.20;;;;;;;20.52;57.09;94556.06;5035957;28;20296;-64
2022/06/23 03:47:20;;;;;;;10.00;9.07;;;;;;;20.75;56.97;94557.25;5025018;28;20220;-63
2022/06/23 03:50:17;;;;;;;11.27;8.75;;;;;;;20.82;56.54;94542.75;4970657;28;20207;-64
2022/06/23 03:52:48;;;;;;;9.02;8.27;;;;;;;20.72;57.55;94555.03;4968967;28;20301;-65
2022/06/23 03:55:28;;;;;;;11.75;9.63;;;;;;;20.53;58.95;94554.19;4968416;28;20227;-64
2022/06/23 03:58:14;;;;;;;13.13;9.75;;;;;;;21.02;57.18;94566.53;5013907;28;20226;-64
2022/06/23 04:00:46;;;;;;;10.20;9.35;;;;;;;20.94;57.63;94574.88;5005982;28;20218;-65
2022/06/23 04:03:33;;;;;;;13.73;9.57;;;;;;;20.59;57.83;94564.03;5022023;28;20307;-65
2022/06/23 04:06:21;;;;;;;14.82;9.38;;;;;;;21.02;56.70;94555.84;5021899;28;20311;-66
2022/06/23 04:09:00;;;;;;;11.35;9.23;;;;;;;20.95;57.84;94565.78;5025750;28;20291;-63
2022/06/23 04:11:44;;;;;;;13.93;9.73;;;;;;;20.94;57.70;94585.56;5026328;28;20230;-65
2022/06/23 04:14:13;;;;;;;11.93;10.13;;;;;;;21.06;57.40;94572.22;5024207;28;20241;-66
2022/06/23 04:16:40;;;;;;;12.88;9.73;;;;;;;21.15;57.21;94582.38;5011220;28;20284;-68
2022/06/23 04:19:17;;;;;;;11.60;10.15;;;;;;;21.25;56.56;94573.81;5005881;28;20202;-69
2022/06/23 04:21:45;;;;;;;12.35;9.98;;;;;;;21.08;56.80;94578.16;5021228;28;20225;-67
2022/06/23 04:24:19;;;;;;;16.50;9.10;;;;;;;21.39;56.49;94581.66;5021465;28;20218;-68
2022/06/23 04:26:49;;;;;;;15.18;10.52;;;;;;;21.36;56.27;94580.22;5048797;28;20307;-66
2022/06/23 04:29:29;;;;;;;14.32;10.20;;;;;;;21.31;56.20;94585.44;5058895;28;20221;-63
2022/06/23 04:32:14;;;;;;;11.48;10.13;;;;;;;21.38;55.95;94575.47;5051412;28;20251;-66
2022/06/23 04:34:49;;;;;;;13.63;9.93;;;;;;;21.42;56.12;94565.97;5066371;28;20262;-65
2022/06/23 04:37:23;;;;;;;14.18;11.32;;;;;;;21.64;54.93;94562.72;5059320;28;20200;-63
2022/06/23 04:40:00;;;;;;;11.63;10.18;;;;;;;21.53;55.59;94573.19;5051876;28;20288;-65
2022/06/23 04:42:27;;;;;;;12.27;9.68;;;;;;;21.67;54.91;94565.75;5050675;28;20232;-64
2022/06/23 04:44:57;;;;;;;16.33;11.57;;;;;;;21.66;54.98;94568.69;5051298;28;20231;-65
2022/06/23 04:47:31;;;;;;;15.45;10.80;;;;;;;21.70;54.75;94564.47;5060041;28;20300;-64
2022/06/23 04:50:02;;;;;;;13.23;9.88;;;;;;;21.79;54.48;94565.78;5054365;28;20204;-64
2022/06/23 04:52:43;;;;;;;13.27;11.55;;;;;;;21.94;53.96;94567.97;5068519;28;20216;-66
2022/06/23 04:55:23;;;;;;;13.50;10.27;;;;;;;21.99;53.52;94568.09;5053565;28;20255;-69
2022/06/23 04:58:03;;;;;;;13.85;10.50;;;;;;;21.92;54.07;94570.06;5048887;28;20231;-67
2022/06/23 05:00:48;;;;;;;15.35;11.32;;;;;;;21.92;54.38;94559.34;5047892;28;20232;-65
2022/06/23 05:03:22;;;;;;;14.68;11.13;;;;;;;21.94;54.34;94563.44;5049493;28;20225;-65
2022/06/23 05:06:14;;;;;;;13.57;10.95;;;;;;;21.72;55.11;94568.56;5048658;28;20217;-65
2022/06/23 05:08:43;;;;;;;13.05;11.07;;;;;;;21.93;54.44;94561.81;5050147;28;20237;-63
2022/06/23 05:11:18;;;;;;;16.52;10.75;;;;;;;22.16;53.68;94555.63;5048911;28;20249;-63
2022/06/23 05:13:55;;;;;;;14.35;10.80;;;;;;;22.21;53.00;94562.97;5049595;28;20216;-63
2022/06/23 05:16:36;;;;;;;18.30;10.90;;;;;;;22.26;52.85;94572.97;5052723;28;20219;-65
2022/06/23 05:19:09;;;;;;;18.05;10.63;;;;;;;22.20;52.86;94556.81;5047014;28;20246;-65
2022/06/23 05:21:47;;;;;;;14.07;10.20;;;;;;;22.53;52.62;94565.25;5063346;28;20226;-66
2022/06/23 05:24:23;;;;;;;14.52;10.68;;;;;;;22.42;53.24;94577.63;5037777;28;20253;-64
2022/06/23 05:27:32;;;;;;;12.27;9.32;;;;;;;22.32;53.97;94578.22;5042192;28;20232;-67
2022/06/23 05:30:16;;;;;;;13.60;10.65;;;;;;;22.44;53.73;94562.94;5051859;28;20637;-67
2022/06/23 05:32:48;;;;;;;16.40;11.18;;;;;;;22.39;53.77;94549.44;5042547;28;20236;-67
2022/06/23 05:35:24;;;;;;;13.93;11.60;;;;;;;22.57;52.98;94550.34;5035850;28;20247;-65
2022/06/23 05:37:57;;;;;;;17.15;11.95;;;;;;;22.53;53.03;94574.09;5057408;28;20231;-65
2022/06/23 05:40:34;;;;;;;20.15;13.32;;;;;;;22.28;53.63;94590.44;5058883;28;20200;-64
2022/06/23 05:43:02;;;;;;;20.48;12.27;;;;;;;22.10;53.79;94577.16;5051454;28;20289;-62
2022/06/23 05:45:44;;;;;;;17.92;13.90;;;;;;;21.96;54.95;94547.94;5056203;28;20224;-65
2022/06/23 05:48:20;;;;;;;15.48;13.32;;;;;;;22.10;54.60;94577.16;5050798;28;20228;-63
2022/06/23 05:50:52;;;;;;;19.05;13.52;;;;;;;21.96;54.79;94604.16;5055129;28;20209;-62
2022/06/23 05:53:34;;;;;;;17.65;14.07;;;;;;;21.73;55.14;94636.25;5060724;28;20296;-63
2022/06/23 05:56:06;;;;;;;20.80;12.75;;;;;;;21.64;55.39;94758.88;5053798;28;20232;-63
2022/06/23 05:58:58;;;;;;;18.35;12.52;;;;;;;21.57;55.91;94922.16;5055218;28;20207;-64
2022/06/23 06:01:38;;;;;;;24.27;13.07;;;;;;;21.28;62.65;94944.25;5034533;28;20225;-66
2022/06/23 06:04:45;;;;;;;29.58;16.33;;;;;;;20.57;68.81;94809.97;5033559;28;20282;-64
2022/06/23 06:07:17;;;;;;;42.03;16.13;;;;;;;20.47;72.49;94733.00;5048811;28;20237;-62
2022/06/23 06:09:43;;;;;;;20.00;10.80;;;;;;;20.35;73.23;94739.28;5047491;28;20298;-66
2022/06/23 06:12:12;;;;;;;18.05;9.80;;;;;;;20.04;69.56;94803.16;5017029;28;20252;-63
2022/06/23 06:14:46;;;;;;;15.43;10.10;;;;;;;19.86;70.01;94820.94;5016942;28;20239;-65
2022/06/23 06:17:21;;;;;;;15.23;9.93;;;;;;;19.68;69.95;94833.16;5019527;28;20232;-64
2022/06/23 06:19:48;;;;;;;12.60;7.97;;;;;;;19.58;68.95;94811.41;5013245;28;20247;-65
2022/06/23 06:22:40;;;;;;;14.80;8.60;;;;;;;19.45;68.89;94790.13;5033033;28;20228;-67
2022/06/23 06:25:07;;;;;;;11.52;8.70;;;;;;;19.53;71.02;94774.69;5024483;28;20229;-65
2022/06/23 06:27:33;;;;;;;10.02;8.07;;;;;;;19.53;70.76;94768.56;5021828;28;20294;-65
2022/06/23 06:30:00;;;;;;;13.15;8.23;;;;;;;19.55;70.25;94751.31;5022653;28;20229;-65
2022/06/23 06:32:37;;;;;;;8.65;7.45;;;;;;;19.60;70.63;94746.16;5035453;28;20287;-69
2022/06/23 06:35:27;;;;;;;10.73;6.75;;;;;;;19.55;70.48;94735.31;5019155;28;20378;-67
2022/06/23 06:38:01;;;;;;;7.97;5.88;;;;;;;19.45;69.47;94726.94;5027506;28;20206;-66
2022/06/23 06:40:27;;;;;;;8.38;5.70;;;;;;;19.57;70.38;94727.91;5023615;28;20207;-65
2022/06/23 06:43:03;;;;;;;6.50;5.30;;;;;;;19.63;70.25;94717.44;5030010;28;20229;-66
2022/06/23 06:45:36;;;;;;;6.00;5.40;;;;;;;19.76;67.61;94720.84;5038088;28;20255;-66
2022/06/23 06:48:03;;;;;;;8.07;4.90;;;;;;;19.82;68.49;94717.31;5065216;28;20225;-67
2022/06/23 06:50:39;;;;;;;10.88;5.90;;;;;;;20.05;68.48;94706.06;5058199;28;20278;-64
2022/06/23 06:53:13;;;;;;;10.40;5.82;;;;;;;20.34;68.89;94708.25;5048524;28;20719;-64
2022/06/23 06:55:44;;;;;;;6.20;5.57;;;;;;;20.42;67.34;94682.13;5060635;28;20299;-61
2022/06/23 06:58:18;;;;;;;7.85;5.82;;;;;;;20.40;67.20;94686.03;5069113;28;20208;-64
2022/06/23 07:00:54;;;;;;;8.75;5.75;;;;;;;20.49;66.62;94692.72;5047734;28;20216;-63
2022/06/23 07:03:23;;;;;;;8.52;5.65;;;;;;;20.32;67.20;94694.34;5052747;28;20712;-62
2022/06/23 07:06:25;;;;;;;6.80;5.72;;;;;;;20.43;68.00;94702.44;5057554;28;20220;-66
2022/06/23 07:09:05;;;;;;;8.63;6.13;;;;;;;20.52;67.30;94684.25;5018967;28;20229;-65
2022/06/23 07:12:01;;;;;;;8.55;6.78;;;;;;;20.58;67.56;94688.75;5021613;28;20233;-65
2022/06/23 07:14:55;;;;;;;7.00;6.13;;;;;;;20.71;68.36;94703.81;5017590;28;20226;-65
2022/06/23 07:17:40;;;;;;;7.90;6.95;;;;;;;20.69;67.86;94700.56;5017559;28;20225;-66
2022/06/23 07:20:23;;;;;;;6.90;6.20;;;;;;;20.61;69.08;94692.81;5040676;28;20279;-66
2022/06/23 07:22:56;;;;;;;6.47;5.75;;;;;;;20.80;68.40;94702.50;5022075;28;20543;-63
2022/06/23 07:25:29;;;;;;;10.25;7.22;;;;;;;21.15;68.93;94708.03;5024192;28;20361;-67
2022/06/23 07:28:00;;;;;;;7.35;6.68;;;;;;;21.17;68.54;94706.97;5021923;28;20241;-66
2022/06/23 07:30:33;;;;;;;8.55;7.03;;;;;;;21.24;68.89;94721.09;5024739;28;20236;-67
2022/06/23 07:33:05;;;;;;;9.10;7.13;;;;;;;21.37;67.07;94728.94;5037816;28;20305;-65
2022/06/23 07:35:36;;;;;;;8.50;7.53;;;;;;;21.62;66.57;94725.34;5037557;28;20252;-68
2022/06/23 07:38:11;;;;;;;9.98;8.48;;;;;;;22.07;66.28;94717.66;5040065;28;20225;-63
2022/06/23 07:40:47;;;;;;;10.60;8.55;;;;;;;22.49;64.83;94730.22;5040065;28;20201;-65
2022/06/23 07:43:25;;;;;;;11.50;8.00;;;;;;;22.52;63.16;94740.47;5042856;28;20232;-64
2022/06/23 07:45:57;;;;;;;12.55;8.43;;;;;;;22.24;63.83;94753.47;5056389;28;20220;-63
2022/06/23 07:48:24;;;;;;;9.13;8.32;;;;;;;21.99;63.11;94758.16;5070450;27;20320;-65
2022/06/23 07:50:50;;;;;;;10.60;8.68;;;;;;;21.84;63.57;94755.94;5059404;28;20244;-66
2022/06/23 07:53:25;;;;;;;11.27;9.40;;;;;;;22.21;63.15;94756.63;5061732;28;20225;-64
2022/06/23 07:55:51;;;;;;;10.90;9.80;;;;;;;22.84;62.26;94768.53;5060357;28;20216;-68
2022/06/23 07:58:26;;;;;;;11.35;9.32;;;;;;;22.59;62.42;94763.41;5046013;28;20249;-62
2022/06/23 08:01:05;;;;;;;14.43;10.20;;;;;;;22.31;63.64;94760.59;5033511;28;20228;-70
2022/06/23 08:03:50;;;;;;;12.25;9.45;;;;;;;22.46;62.80;94755.59;5067199;28;20240;-63
2022/06/23 08:06:21;;;;;;;11.13;8.88;;;;;;;22.40;60.16;94743.94;5015110;28;20320;-64
2022/06/23 08:08:49;;;;;;;9.88;8.35;;;;;;;22.32;62.72;94741.63;5012130;28;20222;-68
2022/06/23 08:14:08;;;;;;;10.93;8.38;;;;;;;22.46;59.96;94769.81;5017845;28;20246;-62
2022/06/23 08:16:50;;;;;;;7.93;7.00;;;;;;;22.67;56.54;94760.38;5007537;28;20203;-68
2022/06/23 08:19:39;;;;;;;7.57;6.60;;;;;;;22.43;55.85;94743.50;5001252;28;20218;-64
2022/06/23 08:22:07;;;;;;;9.10;6.30;;;;;;;22.49;55.81;94735.56;5018698;28;20217;-69
2022/06/23 08:24:36;;;;;;;11.13;6.85;;;;;;;22.54;56.49;94741.84;5002213;28;20223;-64
2022/06/23 08:27:09;;;;;;;7.32;6.60;;;;;;;22.58;58.03;94755.59;5013595;28;20222;-62
2022/06/23 08:29:42;;;;;;;7.85;6.97;;;;;;;22.54;55.56;94743.72;5001158;28;20359;-61
2022/06/23 08:32:09;;;;;;;8.23;6.13;;;;;;;22.64;55.13;94728.69;5017560;28;20230;-64
2022/06/23 08:34:36;;;;;;;9.15;7.30;;;;;;;22.47;54.37;94738.47;5016519;28;20207;-62
2022/06/23 08:37:09;;;;;;;9.32;7.75;;;;;;;22.88;55.77;94748.25;5021850;28;20232;-67
2022/06/23 08:39:47;;;;;;;9.80;7.32;;;;;;;22.81;54.97;94731.47;5033235;28;20222;-66
2022/06/23 08:42:50;;;;;;;7.72;7.00;;;;;;;23.13;56.10;94728.44;5021282;28;20225;-66
2022/06/23 08:45:48;;;;;;;8.85;6.90;;;;;;;23.19;55.65;94722.09;5051227;28;20627;-63
2022/06/23 08:48:33;;;;;;;9.90;7.32;;;;;;;23.18;56.56;94717.81;5071496;28;20240;-64
2022/06/23 08:51:08;;;;;;;10.88;7.25;;;;;;;22.82;56.02;94719.69;5055475;28;20233;-67
2022/06/23 08:53:56;;;;;;;10.52;7.97;;;;;;;23.00;56.11;94715.28;5054538;28;20228;-65
2022/06/23 08:56:29;;;;;;;9.35;8.10;;;;;;;22.81;56.45;94711.91;5051854;28;20253;-65
2022/06/23 08:59:12;;;;;;;12.15;8.95;;;;;;;23.19;56.67;94710.56;5053165;28;20249;-66
2022/06/23 09:02:07;;;;;;;10.00;9.00;;;;;;;23.43;56.71;94716.66;5051815;28;20216;-67
2022/06/23 09:05:08;;;;;;;13.43;9.45;;;;;;;23.54;56.43;94721.97;5047273;28;20216;-63
2022/06/23 09:07:43;;;;;;;15.20;10.60;;;;;;;23.51;56.83;94713.59;5056154;28;20228;-65
2022/06/23 09:10:19;;;;;;;14.02;9.55;;;;;;;23.85;56.65;94708.34;5055924;28;20204;-64
2022/06/23 09:13:06;;;;;;;10.57;9.48;;;;;;;23.73;54.93;94698.47;5049434;28;20310;-68
2022/06/23 09:15:50;;;;;;;14.02;9.98;;;;;;;23.87;55.87;94700.84;5067654;28;20311;-67
2022/06/23 09:18:42;;;;;;;10.07;8.30;;;;;;;24.05;53.52;94706.00;5051523;28;20251;-63
2022/06/23 09:21:29;;;;;;;8.90;7.82;;;;;;;24.09;54.39;94704.47;5052844;28;20220;-63
2022/06/23 09:24:16;;;;;;;12.70;7.20;;;;;;;24.27;53.25;94692.66;5053601;28;20308;-67
2022/06/23 09:27:07;;;;;;;8.45;6.57;;;;;;;24.42;52.95;94697.44;5050002;28;20229;-66
2022/06/23 09:30:02;;;;;;;10.82;6.95;;;;;;;24.61;50.67;94693.44;5052020;28;20239;-65
2022/06/23 09:32:37;;;;;;;8.50;7.45;;;;;;;24.13;52.33;94683.28;5059091;28;20317;-62
2022/06/23 09:35:11;;;;;;;9.13;7.15;;;;;;;23.81;55.38;94681.16;5053955;28;20224;-63
2022/06/23 09:37:51;;;;;;;11.35;7.32;;;;;;;24.16;53.89;94672.88;5049364;28;20212;-65
2022/06/23 09:40:23;;;;;;;8.35;6.95;;;;;;;24.42;51.62;94665.19;5052193;28;20279;-66
2022/06/23 09:43:07;;;;;;;9.55;7.15;;;;;;;24.38;52.12;94669.44;5056179;28;20229;-65
2022/06/23 09:45:41;;;;;;;8.88;6.55;;;;;;;24.53;50.91;94666.19;5055991;28;20247;-68
2022/06/23 09:48:41;;;;;;;9.52;6.75;;;;;;;24.53;51.03;94668.88;5050613;28;20388;-67
2022/06/23 09:51:37;;;;;;;10.57;7.05;;;;;;;24.77;52.06;94664.09;5051130;28;20213;-65
2022/06/23 09:54:21;;;;;;;10.40;7.07;;;;;;;24.91;50.38;94662.66;5052613;28;20225;-63
2022/06/23 09:57:09;;;;;;;11.85;6.68;;;;;;;25.16;51.90;94664.09;5051926;28;20221;-61
2022/06/23 09:59:40;;;;;;;8.50;6.10;;;;;;;25.28;50.85;94672.81;5051537;28;20278;-66
2022/06/23 10:02:18;;;;;;;7.28;6.32;;;;;;;25.49;48.71;94674.66;5050252;28;20249;-62
2022/06/23 10:04:58;;;;;;;8.35;6.32;;;;;;;25.43;49.14;94664.91;5047976;28;20204;-63
2022/06/23 10:07:32;;;;;;;13.30;8.07;;;;;;;25.74;48.16;94659.81;5056035;28;20227;-67
2022/06/23 10:10:17;;;;;;;8.55;6.07;;;;;;;25.80;48.51;94664.22;5049280;28;20263;-67
2022/06/23 10:12:57;;;;;;;9.82;6.03;;;;;;;26.31;48.20;94669.22;5049907;28;20221;-65
2022/06/23 10:15:41;;;;;;;7.63;5.95;;;;;;;26.81;45.71;94670.63;5067407;28;20236;-66
2022/06/23 10:18:06;;;;;;;7.82;6.53;;;;;;;26.57;45.90;94667.53;5067171;28;20236;-64
2022/06/23 10:20:52;;;;;;;10.05;7.40;;;;;;;25.81;46.66;94663.13;5053333;28;20229;-66
2022/06/23 10:23:29;;;;;;;6.60;5.90;;;;;;;25.79;48.15;94664.44;5056627;28;20220;-68
2022/06/23 10:26:22;;;;;;;9.50;6.82;;;;;;;25.82;48.96;94659.38;5048505;28;20236;-67
2022/06/23 10:29:12;;;;;;;9.20;6.38;;;;;;;25.58;47.88;94641.91;5030667;28;21087;-67
2022/06/23 10:32:11;;;;;;;10.10;6.82;;;;;;;24.78;50.19;94642.34;5030128;28;20209;-64
2022/06/23 10:35:04;;;;;;;12.40;7.10;;;;;;;25.19;49.06;94639.34;5035388;28;20308;-66
2022/06/23 10:37:38;;;;;;;8.70;7.65;;;;;;;25.42;47.20;94632.84;5084291;28;20233;-63
2022/06/23 10:40:30;;;;;;;8.98;7.60;;;;;;;25.77;46.36;94632.41;5066540;28;20281;-66
2022/06/23 10:43:08;;;;;;;9.43;7.22;;;;;;;26.22;46.61;94630.34;5052166;28;20293;-68
2022/06/23 10:45:55;;;;;;;10.32;6.78;;;;;;;27.01;45.93;94621.38;5052834;28;20286;-63
2022/06/23 10:48:54;;;;;;;8.60;7.40;;;;;;;26.87;45.99;94620.25;5048497;28;20256;-64
2022/06/23 10:51:43;;;;;;;9.48;7.18;;;;;;;26.56;45.74;94614.69;5055247;28;20461;-62
2022/06/23 10:54:46;;;;;;;8.80;7.85;;;;;;;25.93;47.67;94614.53;5072035;27;20278;-69
2022/06/23 10:57:27;;;;;;;11.75;8.90;;;;;;;26.34;45.94;94615.59;5053784;28;20598;-68
2022/06/23 11:00:01;;;;;;;12.57;8.48;;;;;;;26.79;45.33;94613.47;5056178;28;20304;-66
2022/06/23 11:03:00;;;;;;;14.07;8.13;;;;;;;27.23;45.41;94613.91;5070185;27;20232;-65
2022/06/23 11:05:29;;;;;;;8.13;7.07;;;;;;;27.57;45.74;94613.44;5061601;28;20339;-62
2022/06/23 11:08:29;;;;;;;11.90;7.45;;;;;;;27.83;44.47;94610.81;5063007;28;20213;-63
2022/06/23 11:11:00;;;;;;;9.98;8.93;;;;;;;27.82;43.46;94612.69;5062470;28;20239;-64
2022/06/23 11:17:00;;;;;;;13.70;6.95;;;;;;;27.25;45.62;94614.47;4979222;28;21363;-67
2022/06/23 11:19:44;;;;;;;8.65;6.93;;;;;;;27.64;45.59;94610.47;4979281;28;20219;-64
2022/06/23 11:22:13;;;;;;;10.32;7.65;;;;;;;27.98;44.86;94604.59;4994663;28;20219;-66
2022/06/23 11:25:16;;;;;;;10.13;7.82;;;;;;;27.90;45.72;94617.53;4988740;28;20223;-67
2022/06/23 11:27:47;;;;;;;8.35;7.15;;;;;;;28.08;44.77;94607.28;4994008;28;20243;-64
2022/06/23 11:30:16;;;;;;;9.70;7.78;;;;;;;28.59;43.83;94623.44;4977873;28;20338;-67
2022/06/23 11:33:17;;;;;;;10.57;7.68;;;;;;;28.79;43.21;94614.47;4993951;28;20225;-65
2022/06/23 11:36:22;;;;;;;10.45;7.47;;;;;;;28.63;43.06;94629.13;4988663;28;20210;-67
2022/06/23 11:39:00;;;;;;;10.43;7.72;;;;;;;28.50;42.56;94631.31;4996300;28;20310;-66
2022/06/23 11:41:37;;;;;;;7.95;7.10;;;;;;;28.38;43.59;94630.75;4994022;28;20329;-65
2022/06/23 11:44:12;;;;;;;7.25;6.53;;;;;;;29.14;41.05;94637.91;4979106;28;20223;-63
2022/06/23 11:46:51;;;;;;;11.57;6.80;;;;;;;28.89;42.22;94622.53;4997051;28;20269;-67
2022/06/23 11:49:40;;;;;;;10.73;6.07;;;;;;;29.20;41.51;94628.69;4973596;28;20731;-64
2022/06/23 11:52:18;;;;;;;7.82;6.20;;;;;;;29.39;41.58;94639.69;4993238;28;20219;-68
2022/06/23 11:54:58;;;;;;;7.25;5.25;;;;;;;29.49;42.52;94638.81;4977271;28;20219;-67
2022/06/23 11:58:13;;;;;;;8.57;5.60;;;;;;;29.61;38.92;94633.06;4980169;28;20251;-65
2022/06/23 12:00:57;;;;;;;10.07;5.50;;;;;;;29.19;38.28;94647.91;4970075;28;20287;-65
2022/06/23 12:03:31;;;;;;;5.38;4.25;;;;;;;29.32;39.00;94632.94;4977591;28;20227;-65
2022/06/23 12:06:09;;;;;;;7.68;4.82;;;;;;;29.67;37.96;94635.50;4978892;28;20765;-63
2022/06/23 12:08:59;;;;;;;10.10;5.38;;;;;;;29.90;37.21;94619.59;4974602;28;20223;-64
2022/06/23 12:11:27;;;;;;;8.93;4.97;;;;;;;30.05;37.52;94621.41;4992633;28;20223;-66
2022/06/23 12:13:53;;;;;;;7.60;5.10;;;;;;;30.10;37.17;94602.38;4974802;28;20207;-62
2022/06/23 12:16:19;;;;;;;8.45;5.05;;;;;;;30.29;36.17;94587.03;4980400;28;20722;-65
2022/06/23 12:18:53;;;;;;;8.50;5.20;;;;;;;30.17;36.83;94592.00;4980609;28;20220;-69
2022/06/23 12:21:44;;;;;;;8.75;5.18;;;;;;;30.15;35.82;94601.50;5007655;28;20681;-70
2022/06/23 12:24:34;;;;;;;9.00;5.28;;;;;;;29.41;37.19;94606.91;4977071;28;20227;-63
2022/06/23 12:27:16;;;;;;;11.07;4.95;;;;;;;29.92;36.98;94603.06;4972046;28;20231;-64
2022/06/23 12:29:56;;;;;;;12.63;5.70;;;;;;;30.26;35.83;94603.06;4966865;28;20391;-69
2022/06/23 12:32:37;;;;;;;10.27;5.15;;;;;;;30.41;36.03;94605.63;4962559;28;20311;-70